createdAt,value
2022-10-15T00:00:02.635Z,100399.38
2022-10-15T00:01:11.152Z,100419.84
2022-10-15T00:02:12.901Z,100418.81
2022-10-15T00:03:14.997Z,100421.72
2022-10-15T00:04:16.860Z,100420.22
2022-10-15T00:05:18.713Z,100414.63
2022-10-15T00:06:21.786Z,100413.31
2022-10-15T00:07:23.639Z,100416.66
2022-10-15T00:08:25.599Z,100408.66
2022-10-15T00:09:27.422Z,100416.88
2022-10-15T00:10:29.130Z,100423.28
2022-10-15T00:11:31.459Z,100417.91
2022-10-15T00:12:39.231Z,100411.66
2022-10-15T00:13:41.195Z,100417.91
2022-10-15T00:14:43.088Z,100413.53
2022-10-15T00:15:44.898Z,100419.09
2022-10-15T00:16:46.690Z,100413.69
2022-10-15T00:17:48.447Z,100414.69
2022-10-15T00:18:51.758Z,100414.06
2022-10-15T00:19:53.547Z,100413.88
2022-10-15T00:20:55.391Z,100409.03
2022-10-15T00:21:57.225Z,100408.88
2022-10-15T00:22:58.950Z,100411.56
2022-10-15T00:24:00.679Z,100408.00
2022-10-15T00:25:02.690Z,100404.50
2022-10-15T00:26:10.752Z,100406.53
2022-10-15T00:27:12.551Z,100401.53
2022-10-15T00:28:14.391Z,100408.22
2022-10-15T00:29:16.242Z,100406.53
2022-10-15T00:30:18.208Z,100394.00
2022-10-15T00:31:21.129Z,100403.19
2022-10-15T00:32:23.820Z,100391.47
2022-10-15T00:33:25.643Z,100399.66
2022-10-15T00:34:27.801Z,100406.91
2022-10-15T00:35:29.515Z,100396.84
2022-10-15T00:36:36.672Z,100395.84
2022-10-15T00:37:38.467Z,100381.44
2022-10-15T00:38:40.689Z,100405.25
2022-10-15T00:39:42.456Z,100381.00
2022-10-15T00:40:45.107Z,100378.47
2022-10-15T00:41:47.348Z,100402.91
2022-10-15T00:42:50.224Z,100398.53
2022-10-15T00:43:55.089Z,100396.41
2022-10-15T00:44:59.343Z,100404.94
2022-10-15T00:46:01.572Z,100396.84
2022-10-15T00:47:20.943Z,100404.59
2022-10-15T00:48:23.155Z,100388.50
2022-10-15T00:49:58.926Z,100395.56
2022-10-15T00:51:04.923Z,100402.34
2022-10-15T00:52:19.002Z,100397.16
2022-10-15T00:53:20.743Z,100405.25
2022-10-15T00:54:23.543Z,100394.09
2022-10-15T00:55:30.031Z,100398.25
2022-10-15T00:56:33.337Z,100398.63
2022-10-15T00:57:35.587Z,100406.56
2022-10-15T00:58:37.601Z,100389.63
2022-10-15T00:59:44.503Z,100407.75
2022-10-15T01:00:46.370Z,100407.56
2022-10-15T01:01:48.227Z,100407.94
2022-10-15T01:02:50.123Z,100406.06
2022-10-15T01:03:53.754Z,100398.38
2022-10-15T01:04:56.435Z,100396.69
2022-10-15T01:05:58.142Z,100401.06
2022-10-15T01:06:59.898Z,100398.38
2022-10-15T01:08:01.670Z,100395.03
2022-10-15T01:09:04.558Z,100399.38
2022-10-15T01:10:07.884Z,100381.66
2022-10-15T01:11:36.775Z,100391.78
2022-10-15T01:12:50.304Z,100393.44
2022-10-15T01:14:02.365Z,100388.88
2022-10-15T01:15:19.827Z,100381.81
2022-10-15T01:16:44.453Z,100391.56
2022-10-15T01:18:07.207Z,100370.97
2022-10-15T01:19:33.532Z,100391.03
2022-10-15T01:20:54.242Z,100383.75
2022-10-15T01:22:08.859Z,100389.72
2022-10-15T01:23:51.065Z,100383.31
2022-10-15T01:25:03.688Z,100384.97
2022-10-15T01:26:23.583Z,100369.47
2022-10-15T01:27:29.146Z,100388.97
2022-10-15T01:28:47.930Z,100388.81
2022-10-15T01:30:05.651Z,100394.38
2022-10-15T01:31:34.233Z,100390.66
2022-10-15T01:32:39.905Z,100378.84
2022-10-15T01:34:06.165Z,100378.47
2022-10-15T01:35:16.985Z,100388.81
2022-10-15T01:36:34.432Z,100387.97
2022-10-15T01:38:07.093Z,100365.84
2022-10-15T01:39:33.610Z,100387.13
2022-10-15T01:40:39.855Z,100387.97
2022-10-15T01:41:51.999Z,100385.00
2022-10-15T01:43:02.023Z,100367.25
2022-10-15T01:44:20.651Z,100381.66
2022-10-15T01:45:49.126Z,100362.50
2022-10-15T01:47:19.494Z,100366.75
2022-10-15T01:48:22.789Z,100357.56
2022-10-15T01:49:28.226Z,100349.78
2022-10-15T01:50:33.268Z,100354.97
2022-10-15T01:51:39.413Z,100357.00
2022-10-15T01:52:42.052Z,100357.66
2022-10-15T01:53:44.923Z,100360.56
2022-10-15T01:54:49.527Z,100351.81
2022-10-15T01:55:51.358Z,100337.78
2022-10-15T01:56:55.044Z,100356.56
2022-10-15T01:57:59.335Z,100342.78
2022-10-15T01:59:03.131Z,100359.06
2022-10-15T02:00:05.467Z,100355.53
2022-10-15T02:01:15.489Z,100344.75
2022-10-15T02:02:17.643Z,100339.75
2022-10-15T02:03:20.303Z,100353.03
2022-10-15T02:04:25.157Z,100344.13
2022-10-15T02:05:32.362Z,100326.34
2022-10-15T02:06:39.847Z,100337.06
2022-10-15T02:08:01.989Z,100341.22
2022-10-15T02:09:30.719Z,100338.41
2022-10-15T02:10:47.910Z,100345.69
2022-10-15T02:12:14.895Z,100336.94
2022-10-15T02:13:39.011Z,100339.72
2022-10-15T02:14:55.574Z,100345.47
2022-10-15T02:16:22.282Z,100339.28
2022-10-15T02:17:56.475Z,100335.81
2022-10-15T02:19:08.296Z,100343.00
2022-10-15T02:20:22.867Z,100345.03
2022-10-15T02:21:36.495Z,100331.66
2022-10-15T02:22:46.695Z,100342.25
2022-10-15T02:23:58.999Z,100348.47
2022-10-15T02:25:09.072Z,100349.50
2022-10-15T02:26:12.405Z,100353.22
2022-10-15T02:27:16.641Z,100356.25
2022-10-15T02:28:19.106Z,100355.63
2022-10-15T02:29:23.573Z,100338.06
2022-10-15T02:30:27.480Z,100350.59
2022-10-15T02:31:32.734Z,100344.75
2022-10-15T02:32:38.320Z,100348.47
2022-10-15T02:33:40.849Z,100353.28
2022-10-15T02:34:45.047Z,100354.31
2022-10-15T02:35:49.133Z,100358.03
2022-10-15T02:36:51.952Z,100359.69
2022-10-15T02:37:57.602Z,100349.13
2022-10-15T02:39:02.295Z,100354.69
2022-10-15T02:40:04.719Z,100341.59
2022-10-15T02:41:08.628Z,100345.97
2022-10-15T02:42:10.550Z,100357.38
2022-10-15T02:43:15.248Z,100344.13
2022-10-15T02:44:17.302Z,100349.28
2022-10-15T02:45:19.042Z,100333.41
2022-10-15T02:46:21.036Z,100346.81
2022-10-15T02:47:22.852Z,100351.34
2022-10-15T02:48:25.189Z,100351.34
2022-10-15T02:49:26.967Z,100348.66
2022-10-15T02:50:28.730Z,100336.25
2022-10-15T02:51:35.338Z,100349.50
2022-10-15T02:52:37.117Z,100347.63
2022-10-15T02:53:38.878Z,100351.34
2022-10-15T02:54:40.635Z,100345.97
2022-10-15T02:55:42.404Z,100343.97
2022-10-15T02:56:44.288Z,100341.59
2022-10-15T02:57:46.227Z,100338.91
2022-10-15T02:58:48.050Z,100342.59
2022-10-15T02:59:49.860Z,100337.09
2022-10-15T03:00:52.229Z,100350.69
2022-10-15T03:01:54.130Z,100341.28
2022-10-15T03:02:56.448Z,100327.06
2022-10-15T03:03:58.794Z,100339.28
2022-10-15T03:05:00.894Z,100332.53
2022-10-15T03:06:03.339Z,100346.31
2022-10-15T03:07:05.087Z,100348.19
2022-10-15T03:08:06.832Z,100340.25
2022-10-15T03:09:08.802Z,100340.25
2022-10-15T03:10:11.643Z,100343.81
2022-10-15T03:11:13.715Z,100342.94
2022-10-15T03:12:15.689Z,100348.34
2022-10-15T03:13:17.460Z,100331.91
2022-10-15T03:14:24.381Z,100336.63
2022-10-15T03:15:26.212Z,100329.56
2022-10-15T03:16:27.926Z,100345.00
2022-10-15T03:17:29.693Z,100345.00
2022-10-15T03:18:31.443Z,100337.94
2022-10-15T03:19:33.252Z,100333.28
2022-10-15T03:20:35.261Z,100341.66
2022-10-15T03:21:37.189Z,100330.97
2022-10-15T03:22:44.907Z,100343.31
2022-10-15T03:23:46.648Z,100337.94
2022-10-15T03:24:53.512Z,100305.31
2022-10-15T03:26:00.508Z,100332.91
2022-10-15T03:27:02.392Z,100334.22
2022-10-15T03:28:05.286Z,100328.84
2022-10-15T03:29:12.087Z,100329.00
2022-10-15T03:30:21.694Z,100320.00
2022-10-15T03:31:24.391Z,100340.63
2022-10-15T03:32:28.088Z,100339.31
2022-10-15T03:33:30.126Z,100339.97
2022-10-15T03:34:32.454Z,100338.31
2022-10-15T03:35:35.366Z,100333.28
2022-10-15T03:36:37.725Z,100330.78
2022-10-15T03:37:43.023Z,100334.59
2022-10-15T03:38:45.343Z,100332.72
2022-10-15T03:39:49.110Z,100322.69
2022-10-15T03:40:53.398Z,100305.44
2022-10-15T03:42:07.779Z,100314.59
2022-10-15T03:43:14.816Z,100327.16
2022-10-15T03:44:16.589Z,100311.09
2022-10-15T03:45:23.456Z,100319.63
2022-10-15T03:46:34.020Z,100317.13
2022-10-15T03:47:36.355Z,100320.28
2022-10-15T03:48:38.404Z,100314.81
2022-10-15T03:49:40.184Z,100323.16
2022-10-15T03:50:42.002Z,100322.50
2022-10-15T03:51:43.851Z,100326.03
2022-10-15T03:52:46.992Z,100320.84
2022-10-15T03:53:49.449Z,100314.44
2022-10-15T03:54:51.212Z,100328.94
2022-10-15T03:55:55.088Z,100309.41
2022-10-15T03:56:56.968Z,100326.22
2022-10-15T03:58:09.151Z,100318.59
2022-10-15T03:59:14.960Z,100303.38
2022-10-15T04:00:16.980Z,100321.50
2022-10-15T04:01:23.443Z,100293.53
2022-10-15T04:02:26.140Z,100310.81
2022-10-15T04:03:28.237Z,100308.28
2022-10-15T04:04:30.374Z,100317.88
2022-10-15T04:05:32.794Z,100319.19
2022-10-15T04:06:40.254Z,100320.84
2022-10-15T04:07:46.559Z,100317.31
2022-10-15T04:08:53.502Z,100316.28
2022-10-15T04:09:58.865Z,100307.09
2022-10-15T04:11:05.823Z,100317.94
2022-10-15T04:12:07.834Z,100315.47
2022-10-15T04:13:09.587Z,100310.06
2022-10-15T04:14:11.463Z,100312.94
2022-10-15T04:15:13.479Z,100302.09
2022-10-15T04:16:23.107Z,100308.56
2022-10-15T04:17:25.028Z,100301.34
2022-10-15T04:18:26.754Z,100313.13
2022-10-15T04:19:30.815Z,100302.16
2022-10-15T04:20:38.050Z,100300.31
2022-10-15T04:21:58.363Z,100293.91
2022-10-15T04:23:07.356Z,100305.13
2022-10-15T04:24:10.958Z,100293.53
2022-10-15T04:25:16.184Z,100300.97
2022-10-15T04:26:18.531Z,100294.94
2022-10-15T04:27:20.592Z,100291.38
2022-10-15T04:28:22.428Z,100304.69
2022-10-15T04:29:24.819Z,100295.97
2022-10-15T04:30:26.772Z,100295.97
2022-10-15T04:31:33.999Z,100300.97
2022-10-15T04:32:36.746Z,100298.28
2022-10-15T04:33:38.532Z,100295.09
2022-10-15T04:34:40.350Z,100298.44
2022-10-15T04:35:42.480Z,100291.31
2022-10-15T04:36:48.341Z,100299.31
2022-10-15T04:37:54.707Z,100304.69
2022-10-15T04:38:56.457Z,100303.66
2022-10-15T04:40:10.958Z,100300.59
2022-10-15T04:41:13.431Z,100284.91
2022-10-15T04:42:41.184Z,100302.75
2022-10-15T04:43:43.052Z,100288.03
2022-10-15T04:44:46.290Z,100298.72
2022-10-15T04:45:48.191Z,100292.88
2022-10-15T04:46:53.705Z,100292.88
2022-10-15T04:48:25.152Z,100300.88
2022-10-15T04:49:27.114Z,100304.97
2022-10-15T04:50:28.919Z,100309.69
2022-10-15T04:51:49.534Z,100298.56
2022-10-15T04:52:59.618Z,100295.22
2022-10-15T04:54:02.963Z,100285.84
2022-10-15T04:55:06.456Z,100266.97
2022-10-15T04:56:13.855Z,100286.00
2022-10-15T04:57:15.647Z,100288.53
2022-10-15T04:58:17.390Z,100280.53
2022-10-15T04:59:19.204Z,100284.53
2022-10-15T05:00:40.942Z,100281.63
2022-10-15T05:02:03.619Z,100287.78
2022-10-15T05:03:08.466Z,100291.22
2022-10-15T05:04:24.584Z,100272.75
2022-10-15T05:05:26.827Z,100275.16
2022-10-15T05:06:34.923Z,100275.16
2022-10-15T05:07:50.077Z,100288.16
2022-10-15T05:08:52.287Z,100279.31
2022-10-15T05:09:59.609Z,100288.53
2022-10-15T05:11:06.126Z,100259.66
2022-10-15T05:12:08.423Z,100284.34
2022-10-15T05:13:10.207Z,100275.81
2022-10-15T05:14:13.358Z,100279.97
2022-10-15T05:15:15.304Z,100263.09
2022-10-15T05:16:17.201Z,100274.78
2022-10-15T05:17:19.136Z,100274.78
2022-10-15T05:18:23.078Z,100271.06
2022-10-15T05:19:27.322Z,100274.78
2022-10-15T05:20:29.023Z,100255.34
2022-10-15T05:21:31.566Z,100270.22
2022-10-15T05:22:36.231Z,100267.53
2022-10-15T05:23:39.133Z,100264.00
2022-10-15T05:24:58.386Z,100248.22
2022-10-15T05:26:12.482Z,100265.31
2022-10-15T05:27:14.294Z,100265.31
2022-10-15T05:28:16.857Z,100266.34
2022-10-15T05:29:18.739Z,100269.41
2022-10-15T05:30:20.555Z,100271.06
2022-10-15T05:31:28.693Z,100266.06
2022-10-15T05:32:38.680Z,100271.72
2022-10-15T05:33:45.634Z,100277.09
2022-10-15T05:34:47.435Z,100274.78
2022-10-15T05:35:51.158Z,100283.69
2022-10-15T05:36:55.921Z,100274.13
2022-10-15T05:37:57.687Z,100273.13
2022-10-15T05:39:02.085Z,100271.44
2022-10-15T05:40:04.319Z,100271.44
2022-10-15T05:41:06.541Z,100271.81
2022-10-15T05:42:10.294Z,100274.13
2022-10-15T05:43:21.734Z,100275.59
2022-10-15T05:44:24.017Z,100269.41
2022-10-15T05:45:25.894Z,100260.41
2022-10-15T05:46:28.319Z,100278.50
2022-10-15T05:47:30.129Z,100271.44
2022-10-15T05:48:51.840Z,100267.72
2022-10-15T05:49:54.731Z,100272.75
2022-10-15T05:51:04.441Z,100269.19
2022-10-15T05:52:06.336Z,100273.75
2022-10-15T05:53:28.733Z,100267.78
2022-10-15T05:54:36.338Z,100262.63
2022-10-15T05:55:38.139Z,100266.34
2022-10-15T05:56:39.831Z,100261.97
2022-10-15T05:57:41.746Z,100245.97
2022-10-15T05:58:43.628Z,100256.97
2022-10-15T05:59:45.463Z,100252.31
2022-10-15T06:01:03.131Z,100265.22
2022-10-15T06:02:05.845Z,100262.78
2022-10-15T06:03:12.411Z,100256.97
2022-10-15T06:04:14.200Z,100264.84
2022-10-15T06:05:17.067Z,100262.34
2022-10-15T06:06:25.423Z,100266.06
2022-10-15T06:07:27.950Z,100268.38
2022-10-15T06:08:30.835Z,100260.66
2022-10-15T06:09:32.615Z,100261.31
2022-10-15T06:10:37.981Z,100254.16
2022-10-15T06:11:39.778Z,100257.41
2022-10-15T06:12:49.541Z,100272.38
2022-10-15T06:13:51.248Z,100266.59
2022-10-15T06:14:52.944Z,100268.28
2022-10-15T06:15:54.698Z,100267.25
2022-10-15T06:16:56.418Z,100256.66
2022-10-15T06:17:58.106Z,100252.50
2022-10-15T06:18:59.918Z,100264.19
2022-10-15T06:20:01.659Z,100253.06
2022-10-15T06:21:03.670Z,100263.56
2022-10-15T06:22:05.378Z,100265.88
2022-10-15T06:23:07.148Z,100250.25
2022-10-15T06:24:10.122Z,100257.03
2022-10-15T06:25:12.080Z,100256.47
2022-10-15T06:26:13.823Z,100256.66
2022-10-15T06:27:16.635Z,100254.69
2022-10-15T06:28:18.551Z,100247.16
2022-10-15T06:29:20.239Z,100255.59
2022-10-15T06:30:22.125Z,100245.22
2022-10-15T06:31:23.979Z,100259.22
2022-10-15T06:32:25.723Z,100260.50
2022-10-15T06:33:29.020Z,100254.72
2022-10-15T06:34:30.978Z,100251.63
2022-10-15T06:35:35.337Z,100247.53
2022-10-15T06:36:38.209Z,100248.38
2022-10-15T06:37:39.963Z,100253.84
2022-10-15T06:38:44.267Z,100241.03
2022-10-15T06:39:46.765Z,100250.19
2022-10-15T06:40:48.423Z,100248.16
2022-10-15T06:41:50.134Z,100247.78
2022-10-15T06:42:51.903Z,100253.00
2022-10-15T06:43:54.586Z,100248.22
2022-10-15T06:44:56.480Z,100239.88
2022-10-15T06:46:00.374Z,100260.78
2022-10-15T06:47:02.053Z,100247.06
2022-10-15T06:48:05.068Z,100255.81
2022-10-15T06:49:08.803Z,100252.53
2022-10-15T06:50:12.197Z,100249.63
2022-10-15T06:51:14.001Z,100252.16
2022-10-15T06:52:22.296Z,100252.59
2022-10-15T06:53:23.981Z,100245.72
2022-10-15T06:54:25.768Z,100245.16
2022-10-15T06:55:29.078Z,100240.41
2022-10-15T06:56:30.794Z,100240.19
2022-10-15T06:57:32.486Z,100246.44
2022-10-15T06:58:34.195Z,100228.31
2022-10-15T06:59:38.707Z,100243.97
2022-10-15T07:00:43.139Z,100236.53
2022-10-15T07:01:44.856Z,100235.50
2022-10-15T07:02:46.603Z,100242.34
2022-10-15T07:03:51.630Z,100245.03
2022-10-15T07:04:53.367Z,100228.59
2022-10-15T07:05:55.781Z,100236.56
2022-10-15T07:06:57.650Z,100231.75
2022-10-15T07:07:59.793Z,100235.53
2022-10-15T07:09:03.217Z,100239.72
2022-10-15T07:10:05.447Z,100231.59
2022-10-15T07:11:09.386Z,100223.28
2022-10-15T07:12:11.095Z,100242.00
2022-10-15T07:13:12.783Z,100229.38
2022-10-15T07:14:14.539Z,100232.88
2022-10-15T07:15:16.834Z,100229.16
2022-10-15T07:16:18.523Z,100212.47
2022-10-15T07:17:20.252Z,100228.13
2022-10-15T07:18:22.531Z,100238.91
2022-10-15T07:19:24.517Z,100234.38
2022-10-15T07:20:26.328Z,100220.81
2022-10-15T07:21:28.035Z,100231.47
2022-10-15T07:22:29.741Z,100229.41
2022-10-15T07:23:31.770Z,100220.41
2022-10-15T07:24:33.504Z,100228.56
2022-10-15T07:25:35.251Z,100223.75
2022-10-15T07:26:37.024Z,100235.44
2022-10-15T07:27:39.334Z,100221.94
2022-10-15T07:28:41.319Z,100226.31
2022-10-15T07:29:43.171Z,100228.81
2022-10-15T07:30:44.902Z,100235.03
2022-10-15T07:31:46.982Z,100215.25
2022-10-15T07:32:51.296Z,100224.88
2022-10-15T07:33:52.967Z,100227.56
2022-10-15T07:34:54.663Z,100223.03
2022-10-15T07:35:56.396Z,100220.13
2022-10-15T07:36:58.130Z,100220.13
2022-10-15T07:38:03.093Z,100221.13
2022-10-15T07:39:04.848Z,100216.44
2022-10-15T07:40:08.160Z,100218.84
2022-10-15T07:41:11.094Z,100231.59
2022-10-15T07:42:17.157Z,100223.09
2022-10-15T07:43:18.835Z,100230.34
2022-10-15T07:44:20.536Z,100221.44
2022-10-15T07:45:23.107Z,100213.91
2022-10-15T07:46:24.967Z,100216.44
2022-10-15T07:47:30.038Z,100219.38
2022-10-15T07:48:32.438Z,100221.22
2022-10-15T07:49:34.252Z,100202.22
2022-10-15T07:50:37.263Z,100204.84
2022-10-15T07:51:42.926Z,100216.28
2022-10-15T07:52:44.827Z,100191.09
2022-10-15T07:53:47.549Z,100214.59
2022-10-15T07:54:49.231Z,100208.16
2022-10-15T07:55:51.468Z,100198.16
2022-10-15T07:56:53.145Z,100220.66
2022-10-15T07:57:58.372Z,100216.47
2022-10-15T07:59:00.068Z,100212.53
2022-10-15T08:00:01.729Z,100198.81
2022-10-15T08:01:13.798Z,100212.31
2022-10-15T08:02:17.028Z,100208.16
2022-10-15T08:03:18.721Z,100222.31
2022-10-15T08:04:20.678Z,100206.09
2022-10-15T08:05:24.387Z,100201.50
2022-10-15T08:06:26.312Z,100208.81
2022-10-15T08:07:28.039Z,100206.94
2022-10-15T08:08:30.988Z,100202.38
2022-10-15T08:09:32.751Z,100213.19
2022-10-15T08:10:36.106Z,100218.75
2022-10-15T08:11:37.828Z,100213.19
2022-10-15T08:12:42.633Z,100213.19
2022-10-15T08:13:47.170Z,100218.56
2022-10-15T08:14:48.967Z,100215.88
2022-10-15T08:15:56.238Z,100210.47
2022-10-15T08:17:03.252Z,100221.06
2022-10-15T08:18:04.915Z,100217.53
2022-10-15T08:19:06.641Z,100220.25
2022-10-15T08:20:08.783Z,100215.88
2022-10-15T08:21:11.084Z,100215.88
2022-10-15T08:22:12.994Z,100212.16
2022-10-15T08:23:17.126Z,100218.56
2022-10-15T08:24:18.998Z,100219.41
2022-10-15T08:25:20.710Z,100219.41
2022-10-15T08:26:22.579Z,100202.31
2022-10-15T08:27:24.401Z,100209.44
2022-10-15T08:28:33.410Z,100214.63
2022-10-15T08:29:35.150Z,100210.03
2022-10-15T08:30:37.819Z,100216.50
2022-10-15T08:31:45.263Z,100218.19
2022-10-15T08:32:46.962Z,100221.91
2022-10-15T08:33:48.766Z,100202.53
2022-10-15T08:34:50.611Z,100219.22
2022-10-15T08:35:52.747Z,100216.69
2022-10-15T08:36:54.528Z,100216.69
2022-10-15T08:37:56.371Z,100224.63
2022-10-15T08:38:58.484Z,100221.91
2022-10-15T08:40:00.149Z,100213.56
2022-10-15T08:41:03.412Z,100220.25
2022-10-15T08:42:12.259Z,100202.31
2022-10-15T08:43:22.399Z,100204.84
2022-10-15T08:44:27.779Z,100214.63
2022-10-15T08:45:38.848Z,100209.84
2022-10-15T08:46:48.408Z,100207.16
2022-10-15T08:47:58.575Z,100200.72
2022-10-15T08:49:01.619Z,100208.63
2022-10-15T08:50:25.694Z,100206.56
2022-10-15T08:51:42.452Z,100204.47
2022-10-15T08:52:49.651Z,100211.97
2022-10-15T08:53:56.445Z,100208.63
2022-10-15T08:55:03.811Z,100207.38
2022-10-15T08:56:17.365Z,100211.53
2022-10-15T08:57:49.451Z,100214.91
2022-10-15T08:58:55.414Z,100205.53
2022-10-15T09:00:12.839Z,100210.09
2022-10-15T09:01:31.606Z,100215.13
2022-10-15T09:02:48.103Z,100196.16
2022-10-15T09:03:52.686Z,100210.75
2022-10-15T09:05:06.438Z,100210.31
2022-10-15T09:06:19.742Z,100204.06
2022-10-15T09:07:36.724Z,100206.56
2022-10-15T09:09:02.818Z,100203.47
2022-10-15T09:10:10.548Z,100212.44
2022-10-15T09:11:30.730Z,100204.69
2022-10-15T09:12:39.183Z,100202.00
2022-10-15T09:13:44.417Z,100201.13
2022-10-15T09:14:49.131Z,100211.34
2022-10-15T09:15:57.355Z,100207.16
2022-10-15T09:17:04.478Z,100196.34
2022-10-15T09:18:10.617Z,100202.38
2022-10-15T09:19:17.541Z,100213.41
2022-10-15T09:20:33.715Z,100204.91
2022-10-15T09:21:36.214Z,100199.28
2022-10-15T09:22:39.226Z,100204.91
2022-10-15T09:23:43.815Z,100207.59
2022-10-15T09:24:45.807Z,100204.91
2022-10-15T09:26:06.357Z,100214.69
2022-10-15T09:27:36.724Z,100201.22
2022-10-15T09:28:53.586Z,100201.22
2022-10-15T09:30:36.950Z,100203.13
2022-10-15T09:31:49.670Z,100193.94
2022-10-15T09:33:13.599Z,100188.13
2022-10-15T09:34:22.958Z,100194.56
2022-10-15T09:35:30.256Z,100185.59
2022-10-15T09:36:47.099Z,100193.13
2022-10-15T09:38:06.024Z,100182.94
2022-10-15T09:39:26.163Z,100185.44
2022-10-15T09:40:34.990Z,100178.34
2022-10-15T09:42:10.719Z,100184.59
2022-10-15T09:43:13.603Z,100176.28
2022-10-15T09:44:19.651Z,100175.03
2022-10-15T09:45:26.569Z,100171.69
2022-10-15T09:46:28.615Z,100176.28
2022-10-15T09:47:32.915Z,100181.22
2022-10-15T09:48:49.036Z,100178.13
2022-10-15T09:49:50.948Z,100167.31
2022-10-15T09:51:00.407Z,100158.34
2022-10-15T09:52:11.190Z,100170.03
2022-10-15T09:53:23.328Z,100169.84
2022-10-15T09:54:45.342Z,100183.13
2022-10-15T09:55:56.902Z,100182.94
2022-10-15T09:56:59.591Z,100182.94
2022-10-15T09:58:12.182Z,100175.03
2022-10-15T09:59:18.725Z,100176.91
2022-10-15T10:00:20.889Z,100174.22
2022-10-15T10:01:28.115Z,100175.44
2022-10-15T10:02:30.476Z,100184.16
2022-10-15T10:03:34.886Z,100173.31
2022-10-15T10:04:38.522Z,100178.97
2022-10-15T10:05:40.554Z,100161.47
2022-10-15T10:06:49.958Z,100182.50
2022-10-15T10:08:07.738Z,100161.69
2022-10-15T10:09:22.997Z,100174.00
2022-10-15T10:10:28.398Z,100169.22
2022-10-15T10:11:48.507Z,100169.22
2022-10-15T10:12:50.511Z,100161.75
2022-10-15T10:13:56.789Z,100172.13
2022-10-15T10:15:02.501Z,100157.56
2022-10-15T10:16:10.261Z,100155.94
2022-10-15T10:17:23.327Z,100143.88
2022-10-15T10:18:25.769Z,100149.28
2022-10-15T10:19:27.475Z,100145.72
2022-10-15T10:20:32.949Z,100146.97
2022-10-15T10:21:39.267Z,100155.09
2022-10-15T10:22:52.651Z,100151.34
2022-10-15T10:23:54.474Z,100131.34
2022-10-15T10:24:56.237Z,100153.00
2022-10-15T10:25:59.704Z,100154.03
2022-10-15T10:27:02.520Z,100151.34
2022-10-15T10:28:17.511Z,100113.25
2022-10-15T10:29:36.563Z,100145.53
2022-10-15T10:31:03.634Z,100134.56
2022-10-15T10:32:24.089Z,100121.03
2022-10-15T10:33:29.613Z,100129.78
2022-10-15T10:34:33.490Z,100136.41
2022-10-15T10:35:45.675Z,100139.72
2022-10-15T10:36:52.507Z,100139.72
2022-10-15T10:37:54.661Z,100137.03
2022-10-15T10:39:14.673Z,100130.59
2022-10-15T10:40:28.171Z,100132.47
2022-10-15T10:41:54.251Z,100133.50
2022-10-15T10:43:21.747Z,100124.00
2022-10-15T10:44:30.902Z,100117.97
2022-10-15T10:45:34.949Z,100112.75
2022-10-15T10:46:36.754Z,100108.56
2022-10-15T10:47:39.547Z,100119.78
2022-10-15T10:48:46.782Z,100113.56
2022-10-15T10:49:51.781Z,100123.53
2022-10-15T10:51:27.872Z,100116.94
2022-10-15T10:52:33.337Z,100115.25
2022-10-15T10:53:44.623Z,100120.00
2022-10-15T10:54:47.828Z,100117.31
2022-10-15T10:55:52.044Z,100098.56
2022-10-15T10:57:01.600Z,100121.03
2022-10-15T10:58:05.178Z,100121.03
2022-10-15T10:59:18.509Z,100123.97
2022-10-15T11:00:42.561Z,100120.25
2022-10-15T11:01:44.426Z,100114.22
2022-10-15T11:02:47.128Z,100103.56
2022-10-15T11:03:50.462Z,100118.16
2022-10-15T11:04:52.144Z,100117.31
2022-10-15T11:06:19.134Z,100112.31
2022-10-15T11:07:31.899Z,100116.06
2022-10-15T11:09:25.723Z,100120.06
2022-10-15T11:11:05.679Z,100112.38
2022-10-15T11:12:34.248Z,100107.81
2022-10-15T11:13:50.484Z,100119.03
2022-10-15T11:14:57.832Z,100117.78
2022-10-15T11:16:19.130Z,100113.19
2022-10-15T11:17:41.931Z,100109.84
2022-10-15T11:19:18.744Z,100113.63
2022-10-15T11:20:59.710Z,100108.00
2022-10-15T11:22:35.502Z,100110.50
2022-10-15T11:24:14.444Z,100107.81
2022-10-15T11:25:40.890Z,100109.88
2022-10-15T11:27:09.483Z,100105.53
2022-10-15T11:28:41.726Z,100101.97
2022-10-15T11:30:07.339Z,100105.72
2022-10-15T11:32:02.708Z,100100.34
2022-10-15T11:33:35.940Z,100093.25
2022-10-15T11:35:17.124Z,100093.25
2022-10-15T11:36:33.616Z,100086.81
2022-10-15T11:38:17.598Z,100065.81
2022-10-15T11:39:31.396Z,100073.91
2022-10-15T11:40:52.159Z,100074.13
2022-10-15T11:42:02.434Z,100055.59
2022-10-15T11:43:16.644Z,100075.13
2022-10-15T11:44:53.148Z,100066.22
2022-10-15T11:46:19.715Z,100066.44
2022-10-15T11:48:00.504Z,100059.56
2022-10-15T11:50:56.012Z,100049.16
2022-10-15T11:52:24.234Z,100055.44
2022-10-15T11:54:01.221Z,100056.88
2022-10-15T11:55:14.067Z,100058.31
2022-10-15T11:56:38.873Z,100071.00
2022-10-15T11:57:43.499Z,100056.22
2022-10-15T11:58:52.699Z,100054.16
2022-10-15T12:00:03.163Z,100073.91
2022-10-15T12:01:37.636Z,100074.13
2022-10-15T12:02:45.458Z,100069.53
2022-10-15T12:04:16.409Z,100080.97
2022-10-15T12:05:35.399Z,100073.72
2022-10-15T12:06:43.699Z,100064.34
2022-10-15T12:07:49.978Z,100061.84
2022-10-15T12:08:56.771Z,100052.06
2022-10-15T12:10:17.165Z,100058.53
2022-10-15T12:11:31.884Z,100050.84
2022-10-15T12:12:53.840Z,100038.16
2022-10-15T12:14:04.487Z,100057.06
2022-10-15T12:15:15.048Z,100048.34
2022-10-15T12:16:24.022Z,100048.34
2022-10-15T12:17:55.655Z,100046.25
2022-10-15T12:19:03.188Z,100044.59
2022-10-15T12:20:14.148Z,100049.19
2022-10-15T12:21:37.926Z,100041.88
2022-10-15T12:22:54.023Z,100048.97
2022-10-15T12:23:55.709Z,100046.06
2022-10-15T12:24:57.610Z,100047.53
2022-10-15T12:25:59.302Z,100050.41
2022-10-15T12:27:26.547Z,100039.19
2022-10-15T12:28:31.821Z,100030.69
2022-10-15T12:29:33.671Z,100037.34
2022-10-15T12:30:37.783Z,100037.75
2022-10-15T12:31:57.329Z,100040.84
2022-10-15T12:33:03.435Z,100052.50
2022-10-15T12:34:05.265Z,100043.78
2022-10-15T12:35:16.188Z,100046.47
2022-10-15T12:36:25.136Z,100044.81
2022-10-15T12:37:29.251Z,100038.38
2022-10-15T12:38:33.284Z,100031.31
2022-10-15T12:39:51.625Z,100024.22
2022-10-15T12:41:01.470Z,100030.03
2022-10-15T12:42:04.038Z,100025.69
2022-10-15T12:43:33.505Z,100039.22
2022-10-15T12:44:35.627Z,100035.88
2022-10-15T12:45:48.720Z,100039.81
2022-10-15T12:46:50.921Z,100039.63
2022-10-15T12:48:18.284Z,100040.25
2022-10-15T12:49:27.105Z,100043.78
2022-10-15T12:50:31.290Z,100040.44
2022-10-15T12:51:35.426Z,100042.31
2022-10-15T12:52:56.458Z,100025.69
2022-10-15T12:54:00.392Z,100033.38
2022-10-15T12:55:23.387Z,100035.66